sensor_id;sensor_type;location;lat;lon;timestamp;P1;durP1;ratioP1;P2;durP2;ratioP2
38425;SDS011;24210;51.460;6.148;2024-03-17T00:00:29;10.05;;;7.88;;
38425;SDS011;24210;51.460;6.148;2024-03-17T00:02:54;5.70;;;5.13;;
38425;SDS011;24210;51.460;6.148;2024-03-17T00:05:20;6.20;;;5.47;;
38425;SDS011;24210;51.460;6.148;2024-03-17T00:07:45;7.67;;;5.60;;
38425;SDS011;24210;51.460;6.148;2024-03-17T00:10:10;9.47;;;5.57;;
38425;SDS011;24210;51.460;6.148;2024-03-17T00:12:36;8.20;;;5.67;;
38425;SDS011;24210;51.460;6.148;2024-03-17T00:15:01;6.97;;;5.40;;
38425;SDS011;24210;51.460;6.148;2024-03-17T00:17:26;6.93;;;5.37;;
38425;SDS011;24210;51.460;6.148;2024-03-17T00:19:52;6.43;;;5.57;;
38425;SDS011;24210;51.460;6.148;2024-03-17T00:22:17;6.80;;;5.50;;
38425;SDS011;24210;51.460;6.148;2024-03-17T00:24:43;5.17;;;4.53;;
38425;SDS011;24210;51.460;6.148;2024-03-17T00:27:08;7.72;;;4.63;;
38425;SDS011;24210;51.460;6.148;2024-03-17T00:29:34;5.60;;;4.87;;
38425;SDS011;24210;51.460;6.148;2024-03-17T00:31:59;6.57;;;4.70;;
38425;SDS011;24210;51.460;6.148;2024-03-17T00:34:24;6.77;;;5.03;;
38425;SDS011;24210;51.460;6.148;2024-03-17T00:36:49;8.20;;;5.10;;
38425;SDS011;24210;51.460;6.148;2024-03-17T00:41:41;7.20;;;5.20;;
38425;SDS011;24210;51.460;6.148;2024-03-17T00:44:07;6.17;;;5.07;;
38425;SDS011;24210;51.460;6.148;2024-03-17T00:46:32;5.43;;;4.93;;
38425;SDS011;24210;51.460;6.148;2024-03-17T00:48:58;6.63;;;4.77;;
38425;SDS011;24210;51.460;6.148;2024-03-17T00:51:23;10.20;;;5.40;;
38425;SDS011;24210;51.460;6.148;2024-03-17T00:53:48;7.60;;;5.23;;
38425;SDS011;24210;51.460;6.148;2024-03-17T00:56:14;10.00;;;5.47;;
38425;SDS011;24210;51.460;6.148;2024-03-17T00:58:39;6.37;;;5.40;;
38425;SDS011;24210;51.460;6.148;2024-03-17T01:01:05;7.10;;;5.47;;
38425;SDS011;24210;51.460;6.148;2024-03-17T01:03:30;5.87;;;5.03;;
38425;SDS011;24210;51.460;6.148;2024-03-17T01:05:55;6.27;;;5.67;;
38425;SDS011;24210;51.460;6.148;2024-03-17T01:08:20;10.40;;;5.60;;
38425;SDS011;24210;51.460;6.148;2024-03-17T01:10:46;9.30;;;5.33;;
38425;SDS011;24210;51.460;6.148;2024-03-17T01:13:15;9.43;;;5.28;;
38425;SDS011;24210;51.460;6.148;2024-03-17T01:15:40;7.90;;;6.27;;
38425;SDS011;24210;51.460;6.148;2024-03-17T01:18:06;10.90;;;5.97;;
38425;SDS011;24210;51.460;6.148;2024-03-17T01:20:32;8.73;;;5.63;;
38425;SDS011;24210;51.460;6.148;2024-03-17T01:22:58;9.85;;;6.03;;
38425;SDS011;24210;51.460;6.148;2024-03-17T01:25:23;8.03;;;6.13;;
38425;SDS011;24210;51.460;6.148;2024-03-17T01:27:50;15.43;;;6.70;;
38425;SDS011;24210;51.460;6.148;2024-03-17T01:30:16;8.57;;;6.43;;
38425;SDS011;24210;51.460;6.148;2024-03-17T01:32:41;7.43;;;5.87;;
38425;SDS011;24210;51.460;6.148;2024-03-17T01:35:06;7.47;;;6.70;;
38425;SDS011;24210;51.460;6.148;2024-03-17T01:37:32;14.20;;;5.97;;
38425;SDS011;24210;51.460;6.148;2024-03-17T01:39:57;7.03;;;6.43;;
38425;SDS011;24210;51.460;6.148;2024-03-17T01:42:23;8.13;;;7.33;;
38425;SDS011;24210;51.460;6.148;2024-03-17T01:44:48;8.43;;;6.40;;
38425;SDS011;24210;51.460;6.148;2024-03-17T01:47:15;7.57;;;6.65;;
38425;SDS011;24210;51.460;6.148;2024-03-17T01:49:41;9.53;;;8.07;;
38425;SDS011;24210;51.460;6.148;2024-03-17T01:52:06;10.10;;;7.43;;
38425;SDS011;24210;51.460;6.148;2024-03-17T01:54:31;8.27;;;7.30;;
38425;SDS011;24210;51.460;6.148;2024-03-17T01:56:56;11.07;;;6.77;;
38425;SDS011;24210;51.460;6.148;2024-03-17T01:59:22;15.73;;;8.40;;
38425;SDS011;24210;51.460;6.148;2024-03-17T02:01:47;11.60;;;8.20;;
38425;SDS011;24210;51.460;6.148;2024-03-17T02:04:12;8.63;;;7.37;;
38425;SDS011;24210;51.460;6.148;2024-03-17T02:06:37;9.13;;;7.20;;
38425;SDS011;24210;51.460;6.148;2024-03-17T02:09:04;10.82;;;8.20;;
38425;SDS011;24210;51.460;6.148;2024-03-17T02:11:30;8.53;;;7.50;;
38425;SDS011;24210;51.460;6.148;2024-03-17T02:13:55;11.02;;;7.93;;
38425;SDS011;24210;51.460;6.148;2024-03-17T02:16:21;18.23;;;9.47;;
38425;SDS011;24210;51.460;6.148;2024-03-17T02:18:46;9.27;;;7.97;;
38425;SDS011;24210;51.460;6.148;2024-03-17T02:21:12;10.00;;;8.60;;
38425;SDS011;24210;51.460;6.148;2024-03-17T02:23:38;10.97;;;8.30;;
38425;SDS011;24210;51.460;6.148;2024-03-17T02:26:03;9.20;;;7.50;;
38425;SDS011;24210;51.460;6.148;2024-03-17T02:28:28;9.17;;;8.27;;
38425;SDS011;24210;51.460;6.148;2024-03-17T02:30:54;15.33;;;8.97;;
38425;SDS011;24210;51.460;6.148;2024-03-17T02:33:19;10.60;;;9.47;;
38425;SDS011;24210;51.460;6.148;2024-03-17T02:35:48;11.05;;;8.60;;
38425;SDS011;24210;51.460;6.148;2024-03-17T02:38:15;13.07;;;10.17;;
38425;SDS011;24210;51.460;6.148;2024-03-17T02:41:00;12.20;;;9.45;;
38425;SDS011;24210;51.460;6.148;2024-03-17T02:43:25;9.60;;;8.60;;
38425;SDS011;24210;51.460;6.148;2024-03-17T02:45:51;12.67;;;9.10;;
38425;SDS011;24210;51.460;6.148;2024-03-17T02:48:16;10.23;;;8.27;;
38425;SDS011;24210;51.460;6.148;2024-03-17T02:50:41;12.60;;;9.70;;
38425;SDS011;24210;51.460;6.148;2024-03-17T02:53:06;12.17;;;10.17;;
38425;SDS011;24210;51.460;6.148;2024-03-17T02:55:31;10.60;;;9.50;;
38425;SDS011;24210;51.460;6.148;2024-03-17T02:57:56;10.40;;;9.33;;
38425;SDS011;24210;51.460;6.148;2024-03-17T03:00:22;11.33;;;9.53;;
38425;SDS011;24210;51.460;6.148;2024-03-17T03:02:47;10.83;;;9.73;;
38425;SDS011;24210;51.460;6.148;2024-03-17T03:05:12;13.37;;;10.03;;
38425;SDS011;24210;51.460;6.148;2024-03-17T03:07:38;12.73;;;10.47;;
38425;SDS011;24210;51.460;6.148;2024-03-17T03:10:03;12.47;;;9.60;;
38425;SDS011;24210;51.460;6.148;2024-03-17T03:12:28;10.93;;;9.63;;
38425;SDS011;24210;51.460;6.148;2024-03-17T03:14:54;11.57;;;8.60;;
38425;SDS011;24210;51.460;6.148;2024-03-17T03:17:19;13.23;;;10.87;;
38425;SDS011;24210;51.460;6.148;2024-03-17T03:19:44;13.50;;;10.30;;
38425;SDS011;24210;51.460;6.148;2024-03-17T03:22:09;13.60;;;10.60;;
38425;SDS011;24210;51.460;6.148;2024-03-17T03:24:35;14.60;;;10.30;;
38425;SDS011;24210;51.460;6.148;2024-03-17T03:27:00;11.40;;;9.97;;
38425;SDS011;24210;51.460;6.148;2024-03-17T03:29:25;11.83;;;10.30;;
38425;SDS011;24210;51.460;6.148;2024-03-17T03:31:51;14.30;;;10.57;;
38425;SDS011;24210;51.460;6.148;2024-03-17T03:34:16;15.43;;;10.63;;
38425;SDS011;24210;51.460;6.148;2024-03-17T03:36:41;21.03;;;10.47;;
38425;SDS011;24210;51.460;6.148;2024-03-17T03:39:06;13.17;;;11.77;;
38425;SDS011;24210;51.460;6.148;2024-03-17T03:41:35;12.80;;;10.57;;
38425;SDS011;24210;51.460;6.148;2024-03-17T03:44:00;12.53;;;10.27;;
38425;SDS011;24210;51.460;6.148;2024-03-17T03:46:25;12.50;;;10.00;;
38425;SDS011;24210;51.460;6.148;2024-03-17T03:48:51;11.73;;;10.30;;
38425;SDS011;24210;51.460;6.148;2024-03-17T03:51:16;10.47;;;9.17;;
38425;SDS011;24210;51.460;6.148;2024-03-17T03:53:41;11.00;;;9.47;;
38425;SDS011;24210;51.460;6.148;2024-03-17T03:56:07;18.57;;;12.13;;
38425;SDS011;24210;51.460;6.148;2024-03-17T03:58:33;13.23;;;10.20;;
38425;SDS011;24210;51.460;6.148;2024-03-17T04:01:00;17.08;;;9.65;;
38425;SDS011;24210;51.460;6.148;2024-03-17T04:03:25;14.13;;;10.23;;
38425;SDS011;24210;51.460;6.148;2024-03-17T04:05:50;15.50;;;10.10;;
38425;SDS011;24210;51.460;6.148;2024-03-17T04:08:18;14.20;;;9.82;;
38425;SDS011;24210;51.460;6.148;2024-03-17T04:10:44;15.17;;;10.47;;
38425;SDS011;24210;51.460;6.148;2024-03-17T04:13:09;16.30;;;11.43;;
38425;SDS011;24210;51.460;6.148;2024-03-17T04:15:34;15.90;;;10.63;;
38425;SDS011;24210;51.460;6.148;2024-03-17T04:17:59;13.00;;;10.10;;
38425;SDS011;24210;51.460;6.148;2024-03-17T04:20:24;15.93;;;9.80;;
38425;SDS011;24210;51.460;6.148;2024-03-17T04:22:50;15.20;;;9.97;;
38425;SDS011;24210;51.460;6.148;2024-03-17T04:25:15;14.30;;;10.27;;
38425;SDS011;24210;51.460;6.148;2024-03-17T04:27:41;15.10;;;10.20;;
38425;SDS011;24210;51.460;6.148;2024-03-17T04:30:06;15.77;;;10.37;;
38425;SDS011;24210;51.460;6.148;2024-03-17T04:32:32;18.20;;;10.73;;
38425;SDS011;24210;51.460;6.148;2024-03-17T04:34:57;15.30;;;10.90;;
38425;SDS011;24210;51.460;6.148;2024-03-17T04:37:22;17.90;;;11.27;;
38425;SDS011;24210;51.460;6.148;2024-03-17T04:39:48;14.23;;;9.40;;
38425;SDS011;24210;51.460;6.148;2024-03-17T04:42:14;12.53;;;9.67;;
38425;SDS011;24210;51.460;6.148;2024-03-17T04:44:39;19.98;;;10.77;;
38425;SDS011;24210;51.460;6.148;2024-03-17T04:47:05;15.07;;;10.83;;
38425;SDS011;24210;51.460;6.148;2024-03-17T04:49:41;17.35;;;11.05;;
38425;SDS011;24210;51.460;6.148;2024-03-17T04:52:06;16.48;;;11.88;;
38425;SDS011;24210;51.460;6.148;2024-03-17T04:54:32;17.48;;;11.02;;
38425;SDS011;24210;51.460;6.148;2024-03-17T04:56:57;15.30;;;12.90;;
38425;SDS011;24210;51.460;6.148;2024-03-17T04:59:23;13.53;;;10.67;;
38425;SDS011;24210;51.460;6.148;2024-03-17T05:01:49;14.63;;;11.18;;
38425;SDS011;24210;51.460;6.148;2024-03-17T05:04:14;19.37;;;11.13;;
38425;SDS011;24210;51.460;6.148;2024-03-17T05:06:40;12.70;;;9.55;;
38425;SDS011;24210;51.460;6.148;2024-03-17T05:09:07;22.27;;;9.90;;
38425;SDS011;24210;51.460;6.148;2024-03-17T05:11:32;13.50;;;9.90;;
38425;SDS011;24210;51.460;6.148;2024-03-17T05:13:58;13.80;;;9.35;;
38425;SDS011;24210;51.460;6.148;2024-03-17T05:16:23;16.00;;;9.93;;
38425;SDS011;24210;51.460;6.148;2024-03-17T05:18:49;16.93;;;9.40;;
38425;SDS011;24210;51.460;6.148;2024-03-17T05:21:14;14.00;;;10.27;;
38425;SDS011;24210;51.460;6.148;2024-03-17T05:23:39;13.67;;;8.83;;
38425;SDS011;24210;51.460;6.148;2024-03-17T05:26:05;14.07;;;9.63;;
38425;SDS011;24210;51.460;6.148;2024-03-17T05:28:30;18.30;;;8.80;;
38425;SDS011;24210;51.460;6.148;2024-03-17T05:30:56;12.20;;;9.10;;
38425;SDS011;24210;51.460;6.148;2024-03-17T05:33:22;16.30;;;9.27;;
38425;SDS011;24210;51.460;6.148;2024-03-17T05:35:48;14.10;;;9.13;;
38425;SDS011;24210;51.460;6.148;2024-03-17T05:38:14;10.18;;;8.40;;
38425;SDS011;24210;51.460;6.148;2024-03-17T05:40:39;13.33;;;9.33;;
38425;SDS011;24210;51.460;6.148;2024-03-17T05:43:06;12.23;;;9.10;;
38425;SDS011;24210;51.460;6.148;2024-03-17T05:45:31;15.07;;;9.53;;
38425;SDS011;24210;51.460;6.148;2024-03-17T05:47:57;13.13;;;8.90;;
38425;SDS011;24210;51.460;6.148;2024-03-17T05:50:23;15.07;;;9.47;;
38425;SDS011;24210;51.460;6.148;2024-03-17T05:52:48;13.07;;;9.20;;
38425;SDS011;24210;51.460;6.148;2024-03-17T05:55:13;10.13;;;8.83;;
38425;SDS011;24210;51.460;6.148;2024-03-17T05:57:38;15.23;;;9.63;;
38425;SDS011;24210;51.460;6.148;2024-03-17T06:00:04;12.33;;;9.20;;
38425;SDS011;24210;51.460;6.148;2024-03-17T06:02:29;12.57;;;9.63;;
38425;SDS011;24210;51.460;6.148;2024-03-17T06:04:55;13.13;;;9.17;;
38425;SDS011;24210;51.460;6.148;2024-03-17T06:07:20;14.00;;;9.53;;
38425;SDS011;24210;51.460;6.148;2024-03-17T06:09:45;14.57;;;9.33;;
38425;SDS011;24210;51.460;6.148;2024-03-17T06:12:12;15.07;;;8.93;;
38425;SDS011;24210;51.460;6.148;2024-03-17T06:14:37;11.97;;;9.37;;
38425;SDS011;24210;51.460;6.148;2024-03-17T06:17:02;12.87;;;9.80;;
38425;SDS011;24210;51.460;6.148;2024-03-17T06:19:28;14.47;;;10.30;;
38425;SDS011;24210;51.460;6.148;2024-03-17T06:21:55;18.73;;;8.90;;
38425;SDS011;24210;51.460;6.148;2024-03-17T06:24:21;12.48;;;9.48;;
38425;SDS011;24210;51.460;6.148;2024-03-17T06:26:46;11.80;;;8.90;;
38425;SDS011;24210;51.460;6.148;2024-03-17T06:29:13;17.88;;;10.13;;
38425;SDS011;24210;51.460;6.148;2024-03-17T06:31:40;12.15;;;9.65;;
38425;SDS011;24210;51.460;6.148;2024-03-17T06:34:05;11.43;;;9.20;;
38425;SDS011;24210;51.460;6.148;2024-03-17T06:36:30;13.77;;;9.97;;
38425;SDS011;24210;51.460;6.148;2024-03-17T06:38:55;11.83;;;8.73;;
38425;SDS011;24210;51.460;6.148;2024-03-17T06:41:20;14.23;;;8.70;;
38425;SDS011;24210;51.460;6.148;2024-03-17T06:43:46;13.80;;;9.07;;
38425;SDS011;24210;51.460;6.148;2024-03-17T06:46:11;12.33;;;9.00;;
38425;SDS011;24210;51.460;6.148;2024-03-17T06:48:36;12.57;;;8.70;;
38425;SDS011;24210;51.460;6.148;2024-03-17T06:51:01;9.53;;;6.97;;
38425;SDS011;24210;51.460;6.148;2024-03-17T06:53:27;9.97;;;7.30;;
38425;SDS011;24210;51.460;6.148;2024-03-17T06:55:53;9.40;;;6.27;;
38425;SDS011;24210;51.460;6.148;2024-03-17T06:58:18;9.57;;;6.93;;
38425;SDS011;24210;51.460;6.148;2024-03-17T07:03:18;9.27;;;7.03;;
38425;SDS011;24210;51.460;6.148;2024-03-17T07:05:50;8.77;;;7.83;;
38425;SDS011;24210;51.460;6.148;2024-03-17T07:08:15;17.83;;;7.70;;
38425;SDS011;24210;51.460;6.148;2024-03-17T07:10:41;9.77;;;7.87;;
38425;SDS011;24210;51.460;6.148;2024-03-17T07:13:06;9.20;;;7.17;;
38425;SDS011;24210;51.460;6.148;2024-03-17T07:15:31;8.87;;;8.07;;
38425;SDS011;24210;51.460;6.148;2024-03-17T07:17:56;8.67;;;7.50;;
38425;SDS011;24210;51.460;6.148;2024-03-17T07:20:22;14.50;;;7.83;;
38425;SDS011;24210;51.460;6.148;2024-03-17T07:22:48;9.73;;;7.00;;
38425;SDS011;24210;51.460;6.148;2024-03-17T07:25:13;9.38;;;7.82;;
38425;SDS011;24210;51.460;6.148;2024-03-17T07:27:38;11.70;;;7.43;;
38425;SDS011;24210;51.460;6.148;2024-03-17T07:30:04;15.07;;;8.60;;
38425;SDS011;24210;51.460;6.148;2024-03-17T07:32:29;12.67;;;8.17;;
38425;SDS011;24210;51.460;6.148;2024-03-17T07:34:56;8.63;;;7.75;;
38425;SDS011;24210;51.460;6.148;2024-03-17T07:37:22;8.73;;;7.47;;
38425;SDS011;24210;51.460;6.148;2024-03-17T07:39:47;9.83;;;6.73;;
38425;SDS011;24210;51.460;6.148;2024-03-17T07:42:14;11.13;;;7.40;;
38425;SDS011;24210;51.460;6.148;2024-03-17T07:44:39;8.47;;;6.67;;
38425;SDS011;24210;51.460;6.148;2024-03-17T07:47:08;9.35;;;7.03;;
38425;SDS011;24210;51.460;6.148;2024-03-17T07:49:33;9.97;;;7.17;;
38425;SDS011;24210;51.460;6.148;2024-03-17T07:51:58;7.63;;;6.23;;
38425;SDS011;24210;51.460;6.148;2024-03-17T07:54:24;6.60;;;6.00;;
38425;SDS011;24210;51.460;6.148;2024-03-17T07:56:49;7.57;;;6.57;;
38425;SDS011;24210;51.460;6.148;2024-03-17T07:59:14;9.60;;;7.27;;
38425;SDS011;24210;51.460;6.148;2024-03-17T08:01:42;8.13;;;7.10;;
38425;SDS011;24210;51.460;6.148;2024-03-17T08:04:07;8.27;;;6.03;;
38425;SDS011;24210;51.460;6.148;2024-03-17T08:06:33;7.87;;;7.13;;
38425;SDS011;24210;51.460;6.148;2024-03-17T08:08:58;7.30;;;6.20;;
38425;SDS011;24210;51.460;6.148;2024-03-17T08:11:23;10.47;;;6.27;;
38425;SDS011;24210;51.460;6.148;2024-03-17T08:13:49;8.48;;;5.43;;
38425;SDS011;24210;51.460;6.148;2024-03-17T08:16:14;10.57;;;7.33;;
38425;SDS011;24210;51.460;6.148;2024-03-17T08:18:41;7.53;;;6.75;;
38425;SDS011;24210;51.460;6.148;2024-03-17T08:21:06;7.67;;;6.80;;
38425;SDS011;24210;51.460;6.148;2024-03-17T08:23:32;6.77;;;6.17;;
38425;SDS011;24210;51.460;6.148;2024-03-17T08:25:58;6.53;;;5.50;;
38425;SDS011;24210;51.460;6.148;2024-03-17T08:28:24;6.57;;;5.88;;
38425;SDS011;24210;51.460;6.148;2024-03-17T08:30:53;7.13;;;6.27;;
38425;SDS011;24210;51.460;6.148;2024-03-17T08:33:18;10.00;;;6.22;;
38425;SDS011;24210;51.460;6.148;2024-03-17T08:35:51;10.60;;;5.43;;
38425;SDS011;24210;51.460;6.148;2024-03-17T08:38:17;14.45;;;6.82;;
38425;SDS011;24210;51.460;6.148;2024-03-17T08:40:44;10.45;;;6.43;;
38425;SDS011;24210;51.460;6.148;2024-03-17T08:43:10;10.90;;;8.33;;
38425;SDS011;24210;51.460;6.148;2024-03-17T08:45:35;7.53;;;6.63;;
38425;SDS011;24210;51.460;6.148;2024-03-17T08:48:00;10.23;;;6.83;;
38425;SDS011;24210;51.460;6.148;2024-03-17T08:50:25;10.87;;;6.60;;
38425;SDS011;24210;51.460;6.148;2024-03-17T08:52:50;8.47;;;7.13;;
38425;SDS011;24210;51.460;6.148;2024-03-17T08:55:16;7.77;;;6.10;;
38425;SDS011;24210;51.460;6.148;2024-03-17T08:57:42;9.47;;;6.20;;
38425;SDS011;24210;51.460;6.148;2024-03-17T09:00:07;7.03;;;5.70;;
38425;SDS011;24210;51.460;6.148;2024-03-17T09:02:34;5.93;;;5.22;;
38425;SDS011;24210;51.460;6.148;2024-03-17T09:04:59;13.70;;;5.77;;
38425;SDS011;24210;51.460;6.148;2024-03-17T09:07:24;8.13;;;5.73;;
38425;SDS011;24210;51.460;6.148;2024-03-17T09:09:49;6.60;;;5.47;;
38425;SDS011;24210;51.460;6.148;2024-03-17T09:12:15;5.90;;;5.30;;
38425;SDS011;24210;51.460;6.148;2024-03-17T09:14:41;7.75;;;5.82;;
38425;SDS011;24210;51.460;6.148;2024-03-17T09:17:06;11.43;;;5.77;;
38425;SDS011;24210;51.460;6.148;2024-03-17T09:19:32;6.97;;;5.57;;
38425;SDS011;24210;51.460;6.148;2024-03-17T09:21:58;6.95;;;6.05;;
38425;SDS011;24210;51.460;6.148;2024-03-17T09:24:24;7.37;;;5.33;;
38425;SDS011;24210;51.460;6.148;2024-03-17T09:26:49;10.20;;;6.50;;
38425;SDS011;24210;51.460;6.148;2024-03-17T09:29:14;9.20;;;6.10;;
38425;SDS011;24210;51.460;6.148;2024-03-17T09:31:42;6.70;;;6.03;;
38425;SDS011;24210;51.460;6.148;2024-03-17T09:34:08;7.77;;;6.30;;
38425;SDS011;24210;51.460;6.148;2024-03-17T09:36:34;7.63;;;6.80;;
38425;SDS011;24210;51.460;6.148;2024-03-17T09:38:59;7.47;;;6.53;;
38425;SDS011;24210;51.460;6.148;2024-03-17T09:41:29;7.05;;;6.35;;
38425;SDS011;24210;51.460;6.148;2024-03-17T09:43:55;7.55;;;6.32;;
38425;SDS011;24210;51.460;6.148;2024-03-17T09:46:22;7.37;;;6.67;;
38425;SDS011;24210;51.460;6.148;2024-03-17T09:48:48;7.35;;;6.13;;
38425;SDS011;24210;51.460;6.148;2024-03-17T09:51:19;10.67;;;6.90;;
38425;SDS011;24210;51.460;6.148;2024-03-17T09:53:45;12.80;;;8.35;;
38425;SDS011;24210;51.460;6.148;2024-03-17T09:56:11;7.77;;;6.90;;
38425;SDS011;24210;51.460;6.148;2024-03-17T09:58:37;8.25;;;6.28;;
38425;SDS011;24210;51.460;6.148;2024-03-17T10:01:03;8.07;;;6.20;;
38425;SDS011;24210;51.460;6.148;2024-03-17T10:06:06;9.82;;;6.47;;
38425;SDS011;24210;51.460;6.148;2024-03-17T10:08:32;7.07;;;6.10;;
38425;SDS011;24210;51.460;6.148;2024-03-17T10:10:59;11.60;;;6.72;;
38425;SDS011;24210;51.460;6.148;2024-03-17T10:13:24;12.17;;;8.37;;
38425;SDS011;24210;51.460;6.148;2024-03-17T10:15:49;7.23;;;5.43;;
38425;SDS011;24210;51.460;6.148;2024-03-17T10:18:23;7.37;;;6.20;;
38425;SDS011;24210;51.460;6.148;2024-03-17T10:20:49;7.38;;;6.68;;
38425;SDS011;24210;51.460;6.148;2024-03-17T10:23:20;6.47;;;5.88;;
38425;SDS011;24210;51.460;6.148;2024-03-17T10:25:45;7.23;;;5.67;;
38425;SDS011;24210;51.460;6.148;2024-03-17T10:28:11;7.80;;;6.73;;
38425;SDS011;24210;51.460;6.148;2024-03-17T10:30:36;8.30;;;6.30;;
38425;SDS011;24210;51.460;6.148;2024-03-17T10:33:02;11.60;;;7.00;;
38425;SDS011;24210;51.460;6.148;2024-03-17T10:37:56;10.20;;;6.43;;
38425;SDS011;24210;51.460;6.148;2024-03-17T10:40:23;9.93;;;6.65;;
38425;SDS011;24210;51.460;6.148;2024-03-17T10:42:48;8.73;;;6.82;;
38425;SDS011;24210;51.460;6.148;2024-03-17T10:45:14;8.37;;;5.87;;
38425;SDS011;24210;51.460;6.148;2024-03-17T10:47:40;6.93;;;6.00;;
38425;SDS011;24210;51.460;6.148;2024-03-17T10:50:09;6.80;;;6.10;;
38425;SDS011;24210;51.460;6.148;2024-03-17T10:52:41;7.13;;;6.43;;
38425;SDS011;24210;51.460;6.148;2024-03-17T10:55:11;6.35;;;4.75;;
38425;SDS011;24210;51.460;6.148;2024-03-17T10:57:47;9.60;;;6.22;;
38425;SDS011;24210;51.460;6.148;2024-03-17T11:00:13;7.80;;;5.55;;
38425;SDS011;24210;51.460;6.148;2024-03-17T11:02:42;10.48;;;6.20;;
38425;SDS011;24210;51.460;6.148;2024-03-17T11:05:11;9.48;;;6.18;;
38425;SDS011;24210;51.460;6.148;2024-03-17T11:07:38;10.25;;;6.60;;
38425;SDS011;24210;51.460;6.148;2024-03-17T11:10:08;8.30;;;7.15;;
38425;SDS011;24210;51.460;6.148;2024-03-17T11:12:41;10.17;;;7.67;;
38425;SDS011;24210;51.460;6.148;2024-03-17T11:17:47;9.98;;;7.10;;
38425;SDS011;24210;51.460;6.148;2024-03-17T11:20:13;9.40;;;6.78;;
38425;SDS011;24210;51.460;6.148;2024-03-17T11:22:43;7.13;;;6.40;;
38425;SDS011;24210;51.460;6.148;2024-03-17T11:27:54;10.65;;;7.88;;
38425;SDS011;24210;51.460;6.148;2024-03-17T11:33:03;9.77;;;6.82;;
38425;SDS011;24210;51.460;6.148;2024-03-17T11:35:48;9.02;;;6.22;;
38425;SDS011;24210;51.460;6.148;2024-03-17T11:44:15;7.05;;;5.82;;
38425;SDS011;24210;51.460;6.148;2024-03-17T11:46:41;7.25;;;6.55;;
38425;SDS011;24210;51.460;6.148;2024-03-17T11:49:11;9.50;;;7.70;;
38425;SDS011;24210;51.460;6.148;2024-03-17T11:51:41;10.10;;;6.82;;
38425;SDS011;24210;51.460;6.148;2024-03-17T11:54:06;7.53;;;6.53;;
38425;SDS011;24210;51.460;6.148;2024-03-17T11:56:38;8.52;;;7.30;;
38425;SDS011;24210;51.460;6.148;2024-03-17T11:59:04;7.17;;;5.27;;
38425;SDS011;24210;51.460;6.148;2024-03-17T12:01:29;11.13;;;6.97;;
38425;SDS011;24210;51.460;6.148;2024-03-17T12:03:55;10.73;;;6.80;;
38425;SDS011;24210;51.460;6.148;2024-03-17T12:06:22;6.75;;;5.93;;
38425;SDS011;24210;51.460;6.148;2024-03-17T12:08:47;10.37;;;5.63;;
38425;SDS011;24210;51.460;6.148;2024-03-17T12:11:17;7.43;;;6.50;;
38425;SDS011;24210;51.460;6.148;2024-03-17T12:13:42;10.13;;;6.38;;
38425;SDS011;24210;51.460;6.148;2024-03-17T12:16:11;6.70;;;5.27;;
38425;SDS011;24210;51.460;6.148;2024-03-17T12:18:37;8.68;;;6.25;;
38425;SDS011;24210;51.460;6.148;2024-03-17T12:21:05;6.97;;;6.38;;
38425;SDS011;24210;51.460;6.148;2024-03-17T12:23:35;11.35;;;7.53;;
38425;SDS011;24210;51.460;6.148;2024-03-17T12:26:01;8.33;;;6.90;;
38425;SDS011;24210;51.460;6.148;2024-03-17T12:28:26;9.40;;;6.07;;
38425;SDS011;24210;51.460;6.148;2024-03-17T12:30:52;8.90;;;6.60;;
38425;SDS011;24210;51.460;6.148;2024-03-17T12:33:18;8.85;;;6.15;;
38425;SDS011;24210;51.460;6.148;2024-03-17T12:35:44;7.87;;;6.57;;
38425;SDS011;24210;51.460;6.148;2024-03-17T12:38:22;7.00;;;6.13;;
38425;SDS011;24210;51.460;6.148;2024-03-17T12:40:48;10.82;;;7.50;;
38425;SDS011;24210;51.460;6.148;2024-03-17T12:43:13;11.53;;;6.60;;
38425;SDS011;24210;51.460;6.148;2024-03-17T12:45:38;7.53;;;6.60;;
38425;SDS011;24210;51.460;6.148;2024-03-17T12:48:03;12.20;;;6.30;;
38425;SDS011;24210;51.460;6.148;2024-03-17T12:50:29;7.60;;;6.43;;
38425;SDS011;24210;51.460;6.148;2024-03-17T12:52:54;10.43;;;6.53;;
38425;SDS011;24210;51.460;6.148;2024-03-17T12:55:23;9.48;;;6.68;;
38425;SDS011;24210;51.460;6.148;2024-03-17T12:58:07;12.02;;;6.97;;
38425;SDS011;24210;51.460;6.148;2024-03-17T13:01:01;8.85;;;5.95;;
38425;SDS011;24210;51.460;6.148;2024-03-17T13:03:28;10.00;;;7.10;;
38425;SDS011;24210;51.460;6.148;2024-03-17T13:05:54;7.75;;;6.32;;
38425;SDS011;24210;51.460;6.148;2024-03-17T13:08:19;7.17;;;5.77;;
38425;SDS011;24210;51.460;6.148;2024-03-17T13:10:45;6.95;;;6.25;;
38425;SDS011;24210;51.460;6.148;2024-03-17T13:13:12;8.85;;;6.68;;
38425;SDS011;24210;51.460;6.148;2024-03-17T13:15:40;7.97;;;5.82;;
38425;SDS011;24210;51.460;6.148;2024-03-17T13:18:06;8.70;;;6.43;;
38425;SDS011;24210;51.460;6.148;2024-03-17T13:20:32;6.47;;;5.10;;
38425;SDS011;24210;51.460;6.148;2024-03-17T13:22:57;7.80;;;6.30;;
38425;SDS011;24210;51.460;6.148;2024-03-17T13:25:23;13.43;;;6.60;;
38425;SDS011;24210;51.460;6.148;2024-03-17T13:27:51;7.50;;;6.55;;
38425;SDS011;24210;51.460;6.148;2024-03-17T13:30:20;7.13;;;5.90;;
38425;SDS011;24210;51.460;6.148;2024-03-17T13:32:49;7.95;;;7.10;;
38425;SDS011;24210;51.460;6.148;2024-03-17T13:35:20;9.02;;;6.10;;
38425;SDS011;24210;51.460;6.148;2024-03-17T13:37:46;14.33;;;6.53;;
38425;SDS011;24210;51.460;6.148;2024-03-17T13:40:12;7.63;;;5.82;;
38425;SDS011;24210;51.460;6.148;2024-03-17T13:42:41;11.80;;;6.93;;
38425;SDS011;24210;51.460;6.148;2024-03-17T13:45:07;11.10;;;5.83;;
38425;SDS011;24210;51.460;6.148;2024-03-17T13:47:34;10.65;;;6.32;;
38425;SDS011;24210;51.460;6.148;2024-03-17T13:50:00;8.33;;;7.13;;
38425;SDS011;24210;51.460;6.148;2024-03-17T13:52:25;10.30;;;6.90;;
38425;SDS011;24210;51.460;6.148;2024-03-17T13:54:50;10.17;;;7.03;;
38425;SDS011;24210;51.460;6.148;2024-03-17T13:57:15;9.97;;;6.47;;
38425;SDS011;24210;51.460;6.148;2024-03-17T13:59:41;8.93;;;6.53;;
38425;SDS011;24210;51.460;6.148;2024-03-17T14:02:08;9.70;;;6.97;;
38425;SDS011;24210;51.460;6.148;2024-03-17T14:04:37;10.38;;;7.10;;
38425;SDS011;24210;51.460;6.148;2024-03-17T14:07:02;8.20;;;7.40;;
38425;SDS011;24210;51.460;6.148;2024-03-17T14:09:29;11.67;;;7.50;;
38425;SDS011;24210;51.460;6.148;2024-03-17T14:14:19;7.30;;;6.53;;
38425;SDS011;24210;51.460;6.148;2024-03-17T14:16:44;12.37;;;6.50;;
38425;SDS011;24210;51.460;6.148;2024-03-17T14:19:10;7.67;;;5.97;;
38425;SDS011;24210;51.460;6.148;2024-03-17T14:21:35;12.53;;;7.67;;
38425;SDS011;24210;51.460;6.148;2024-03-17T14:24:01;12.67;;;7.17;;
38425;SDS011;24210;51.460;6.148;2024-03-17T14:26:28;9.93;;;7.47;;
38425;SDS011;24210;51.460;6.148;2024-03-17T14:28:53;7.97;;;6.10;;
38425;SDS011;24210;51.460;6.148;2024-03-17T14:31:19;9.88;;;6.18;;
38425;SDS011;24210;51.460;6.148;2024-03-17T14:33:45;10.13;;;6.00;;
38425;SDS011;24210;51.460;6.148;2024-03-17T14:36:10;8.97;;;7.07;;
38425;SDS011;24210;51.460;6.148;2024-03-17T14:38:35;8.80;;;7.83;;
38425;SDS011;24210;51.460;6.148;2024-03-17T14:41:01;13.07;;;7.47;;
38425;SDS011;24210;51.460;6.148;2024-03-17T14:43:26;9.87;;;6.67;;
38425;SDS011;24210;51.460;6.148;2024-03-17T14:45:52;9.57;;;7.13;;
38425;SDS011;24210;51.460;6.148;2024-03-17T14:48:17;8.60;;;5.37;;
38425;SDS011;24210;51.460;6.148;2024-03-17T14:50:42;12.70;;;6.47;;
38425;SDS011;24210;51.460;6.148;2024-03-17T14:53:07;9.07;;;7.20;;
38425;SDS011;24210;51.460;6.148;2024-03-17T14:55:33;7.30;;;6.20;;
38425;SDS011;24210;51.460;6.148;2024-03-17T14:57:58;14.00;;;6.93;;
38425;SDS011;24210;51.460;6.148;2024-03-17T15:00:23;7.60;;;6.80;;